Wetterdaten: aktuell Mittwoch, 26.07.2017 22:02
Datum Zeit Innentemp. Temp Boden Temp Norden Innenfeuchte Licht Bodenfeuchte Feuchte Nord Luftdruck Regenmenge Windstrke Windrichtung Windrichtung Sonne Zeit Windchill
26.07.2017 22:02 22,9 C 16,1 C 16,7 C 60 % 0 % 92 % 95 % 1012 hPa 0,0 l/m 0,0 km/h W-SW 245 0 min 16,7 C
26.07.2017 21:57 22,9 C 16,1 C 16,8 C 60 % 0 % 92 % 95 % 1012 hPa 0,0 l/m 0,0 km/h W-SW 245 0 min 16,8 C
26.07.2017 21:52 22,9 C 16,2 C 16,9 C 60 % 0 % 92 % 95 % 1012 hPa 0,0 l/m 0,0 km/h W-SW 245 0 min 16,9 C
26.07.2017 21:47 22,8 C 16,2 C 16,9 C 61 % 0 % 92 % 95 % 1012 hPa 0,0 l/m 0,0 km/h W-SW 245 0 min 16,9 C
26.07.2017 21:42 22,8 C 16,3 C 17,0 C 61 % 0 % 92 % 94 % 1012 hPa 0,0 l/m 0,0 km/h W-SW 245 0 min 17,0 C
26.07.2017 21:37 22,8 C 16,2 C 17,0 C 61 % 0 % 92 % 94 % 1012 hPa 0,0 l/m 0,0 km/h W-SW 245 0 min 17,0 C
26.07.2017 21:32 22,9 C 16,3 C 17,2 C 61 % 0 % 92 % 94 % 1012 hPa 0,0 l/m 0,0 km/h W-SW 245 0 min 17,2 C
26.07.2017 21:27 22,8 C 16,5 C 17,2 C 61 % 0 % 92 % 94 % 1012 hPa 0,0 l/m 0,0 km/h W-SW 245 0 min 17,2 C
26.07.2017 21:22 22,8 C 16,5 C 17,4 C 61 % 1 % 92 % 94 % 1012 hPa 0,0 l/m 0,0 km/h W-SW 245 0 min 17,4 C
26.07.2017 21:17 22,9 C 16,5 C 17,4 C 61 % 1 % 92 % 94 % 1012 hPa 0,0 l/m 0,0 km/h W-SW 245 0 min 17,4 C
26.07.2017 21:12 22,9 C 16,5 C 17,6 C 61 % 1 % 92 % 94 % 1012 hPa 0,0 l/m 0,0 km/h W-SW 245 0 min 17,6 C
26.07.2017 21:06 22,9 C 16,5 C 17,6 C 61 % 2 % 92 % 94 % 1012 hPa 0,0 l/m 0,0 km/h W-SW 245 0 min 17,6 C
26.07.2017 21:02 22,8 C 16,6 C 17,7 C 61 % 3 % 92 % 94 % 1012 hPa 0,0 l/m 0,0 km/h W-SW 245 0 min 17,7 C
26.07.2017 20:57 22,9 C 16,6 C 17,8 C 61 % 5 % 92 % 94 % 1012 hPa 0,0 l/m 0,0 km/h W-SW 245 0 min 17,8 C
26.07.2017 20:52 22,9 C 16,7 C 18,1 C 61 % 4 % 92 % 93 % 1012 hPa 0,0 l/m 0,0 km/h W-SW 245 0 min 18,1 C
26.07.2017 20:47 22,9 C 16,7 C 18,1 C 61 % 5 % 92 % 93 % 1012 hPa 0,0 l/m 0,0 km/h W-SW 245 0 min 18,1 C
26.07.2017 20:42 22,9 C 16,7 C 18,1 C 61 % 5 % 92 % 93 % 1012 hPa 0,0 l/m 0,0 km/h W-SW 245 0 min 18,1 C
26.07.2017 20:37 22,8 C 16,9 C 18,3 C 61 % 8 % 92 % 93 % 1012 hPa 0,0 l/m 1,0 km/h W-SW 245 0 min 18,3 C
26.07.2017 20:32 22,8 C 16,9 C 18,7 C 61 % 10 % 92 % 93 % 1012 hPa 0,0 l/m 1,0 km/h W-SW 245 0 min 18,7 C
26.07.2017 20:27 22,8 C 17,0 C 18,7 C 61 % 16 % 92 % 93 % 1012 hPa 0,0 l/m 0,0 km/h W-SW 245 0 min 18,7 C
26.07.2017 20:22 22,8 C 17,0 C 18,8 C 61 % 20 % 92 % 93 % 1012 hPa 0,0 l/m 3,4 km/h W-SW 245 0 min 18,8 C
26.07.2017 20:17 22,8 C 17,0 C 18,9 C 61 % 28 % 92 % 93 % 1012 hPa 0,0 l/m 5,5 km/h W-SW 255 0 min 18,9 C
26.07.2017 20:12 22,8 C 17,1 C 19,0 C 61 % 44 % 92 % 93 % 1012 hPa 0,0 l/m 4,3 km/h W-SW 255 0 min 19,0 C
26.07.2017 20:06 22,9 C 17,1 C 19,2 C 61 % 47 % 92 % 93 % 1012 hPa 0,0 l/m 7,0 km/h W-SW 255 0 min 19,2 C
26.07.2017 20:02 22,9 C 17,3 C 19,3 C 61 % 43 % 93 % 93 % 1012 hPa 0,0 l/m 5,1 km/h W-SW 255 0 min 19,3 C
26.07.2017 19:57 22,9 C 17,3 C 19,4 C 61 % 33 % 93 % 93 % 1012 hPa 0,0 l/m 5,3 km/h W-SW 250 0 min 19,4 C
26.07.2017 19:52 22,9 C 17,3 C 19,4 C 61 % 35 % 93 % 93 % 1012 hPa 0,0 l/m 5,2 km/h W-SW 245 0 min 19,4 C
26.07.2017 19:47 22,9 C 17,3 C 19,5 C 61 % 48 % 93 % 93 % 1012 hPa 0,0 l/m 5,0 km/h W-SW 240 0 min 19,5 C
26.07.2017 19:42 22,9 C 17,2 C 19,6 C 61 % 36 % 93 % 93 % 1012 hPa 0,0 l/m 6,5 km/h W-SW 240 0 min 19,6 C
26.07.2017 19:37 22,9 C 17,3 C 19,6 C 61 % 38 % 93 % 93 % 1012 hPa 0,0 l/m 10,6 km/h W45 260 0 min 19,6 C
26.07.2017 19:32 22,9 C 17,3 C 19,6 C 61 % 52 % 93 % 93 % 1012 hPa 0,0 l/m 9,6 km/h W22.5 280 0 min 19,6 C
26.07.2017 19:27 23,0 C 17,3 C 19,6 C 61 % 58 % 93 % 93 % 1012 hPa 0,0 l/m 5,3 km/h W 265 0 min 19,6 C
26.07.2017 19:22 23,0 C 17,3 C 19,6 C 61 % 39 % 93 % 93 % 1011 hPa 0,0 l/m 6,3 km/h W 260 0 min 19,6 C
26.07.2017 19:17 23,0 C 17,2 C 19,5 C 61 % 53 % 93 % 93 % 1011 hPa 0,0 l/m 8,6 km/h SW22.5 230 0 min 19,5 C
26.07.2017 19:12 22,9 C 17,2 C 19,4 C 61 % 69 % 93 % 93 % 1011 hPa 0,0 l/m 6,3 km/h W22.5 265 0 min 19,4 C
26.07.2017 19:07 22,9 C 17,0 C 19,2 C 61 % 71 % 93 % 93 % 1011 hPa 0,0 l/m 6,7 km/h W22.5 270 0 min 19,2 C
26.07.2017 19:02 23,0 C 17,0 C 19,2 C 61 % 71 % 92 % 93 % 1011 hPa 0,0 l/m 11,2 km/h W 275 0 min 19,2 C
26.07.2017 18:57 23,0 C 17,0 C 19,0 C 61 % 80 % 93 % 94 % 1011 hPa 0,0 l/m 5,9 km/h W 280 5 min 19,0 C
26.07.2017 18:52 23,0 C 16,9 C 18,7 C 61 % 61 % 93 % 93 % 1011 hPa 0,0 l/m 9,2 km/h W 280 0 min 18,7 C
26.07.2017 18:47 23,0 C 16,7 C 18,7 C 61 % 67 % 93 % 93 % 1011 hPa 0,0 l/m 5,3 km/h W-NW 285 0 min 18,7 C
26.07.2017 18:42 23,0 C 16,7 C 18,7 C 61 % 82 % 93 % 93 % 1011 hPa 0,0 l/m 3,7 km/h W-NW 285 5 min 18,7 C
26.07.2017 18:37 23,0 C 16,7 C 18,7 C 61 % 46 % 93 % 93 % 1012 hPa 0,0 l/m 6,9 km/h W-NW 285 0 min 18,7 C
26.07.2017 18:32 23,0 C 16,6 C 18,7 C 61 % 44 % 93 % 93 % 1012 hPa 0,0 l/m 7,4 km/h W-NW22.5 285 0 min 18,7 C
26.07.2017 18:27 23,0 C 16,7 C 18,8 C 61 % 38 % 92 % 93 % 1012 hPa 0,0 l/m 6,9 km/h W-NW22.5 285 0 min 18,8 C
26.07.2017 18:22 23,0 C 16,6 C 18,9 C 61 % 32 % 92 % 93 % 1012 hPa 0,0 l/m 8,2 km/h W 275 0 min 18,9 C
26.07.2017 18:17 23,0 C 16,6 C 18,9 C 60 % 31 % 92 % 93 % 1012 hPa 0,0 l/m 8,9 km/h W-SW22.5 255 0 min 18,9 C
26.07.2017 18:12 23,0 C 16,7 C 18,9 C 60 % 31 % 92 % 93 % 1012 hPa 0,0 l/m 17,1 km/h W-SW45 255 0 min 18,9 C
26.07.2017 18:07 23,0 C 16,8 C 18,9 C 60 % 39 % 92 % 93 % 1012 hPa 0,0 l/m 13,9 km/h W45 275 0 min 18,9 C
26.07.2017 18:02 23,0 C 16,9 C 19,0 C 60 % 41 % 93 % 93 % 1011 hPa 0,0 l/m 17,1 km/h W67.5 270 0 min 19,0 C
26.07.2017 17:57 23,0 C 16,8 C 19,0 C 60 % 49 % 93 % 93 % 1012 hPa 0,0 l/m 15,4 km/h W45 270 0 min 19,0 C
26.07.2017 17:52 23,0 C 16,7 C 18,9 C 60 % 59 % 93 % 93 % 1012 hPa 0,0 l/m 11,1 km/h W45 270 0 min 18,9 C
26.07.2017 17:47 23,0 C 16,8 C 18,9 C 60 % 69 % 92 % 93 % 1011 hPa 0,0 l/m 20,4 km/h W67.5 260 0 min 18,9 C
26.07.2017 17:42 23,0 C 16,8 C 18,8 C 60 % 68 % 93 % 94 % 1011 hPa 0,0 l/m 19,8 km/h W22.5 275 0 min 18,8 C
26.07.2017 17:37 23,0 C 16,7 C 18,8 C 60 % 69 % 93 % 94 % 1012 hPa 0,0 l/m 15,8 km/h W67.5 265 0 min 18,8 C
26.07.2017 17:32 23,0 C 16,7 C 18,8 C 60 % 84 % 93 % 94 % 1012 hPa 0,0 l/m 21,2 km/h W45 270 5 min 18,8 C
26.07.2017 17:27 23,0 C 16,7 C 18,6 C 60 % 73 % 93 % 94 % 1012 hPa 0,0 l/m 21,6 km/h W-SW45 250 5 min 18,6 C
26.07.2017 17:22 22,9 C 16,6 C 18,5 C 60 % 71 % 93 % 94 % 1011 hPa 0,0 l/m 16,2 km/h W45 280 5 min 18,5 C
26.07.2017 17:17 22,9 C 16,6 C 18,4 C 59 % 85 % 93 % 94 % 1012 hPa 0,0 l/m 23,2 km/h W22.5 270 5 min 18,4 C
26.07.2017 17:12 22,9 C 16,6 C 18,2 C 59 % 75 % 94 % 95 % 1012 hPa 0,0 l/m 18,7 km/h W45 275 5 min 18,2 C
26.07.2017 17:07 22,8 C 16,4 C 18,2 C 59 % 76 % 94 % 95 % 1011 hPa 0,0 l/m 16,5 km/h W67.5 280 5 min 18,2 C
26.07.2017 17:02 22,8 C 16,4 C 18,1 C 59 % 78 % 94 % 96 % 1011 hPa 0,0 l/m 24,0 km/h W67.5 270 5 min 18,1 C
26.07.2017 16:57 22,8 C 16,4 C 17,8 C 59 % 82 % 95 % 96 % 1011 hPa 0,0 l/m 22,7 km/h W67.5 270 5 min 17,8 C
26.07.2017 16:52 22,8 C 16,3 C 17,3 C 59 % 79 % 95 % 97 % 1012 hPa 0,0 l/m 19,0 km/h W45 270 5 min 17,3 C
26.07.2017 16:47 22,8 C 16,1 C 17,3 C 59 % 83 % 95 % 97 % 1012 hPa 0,0 l/m 17,2 km/h W67.5 260 5 min 17,3 C
26.07.2017 16:42 22,8 C 16,1 C 16,7 C 59 % 90 % 95 % 97 % 1012 hPa 0,0 l/m 20,4 km/h W67.5 260 5 min 16,7 C
26.07.2017 16:37 22,8 C 15,8 C 16,7 C 59 % 92 % 95 % 97 % 1012 hPa 0,0 l/m 17,7 km/h W67.5 260 5 min 16,7 C
26.07.2017 16:32 22,7 C 15,7 C 16,7 C 59 % 96 % 95 % 97 % 1012 hPa 0,0 l/m 11,7 km/h W22.5 265 5 min 16,7 C
26.07.2017 16:27 22,7 C 15,7 C 16,2 C 59 % 67 % 95 % 97 % 1012 hPa 0,0 l/m 14,2 km/h W67.5 265 0 min 16,2 C
26.07.2017 16:22 22,6 C 15,4 C 16,2 C 59 % 77 % 95 % 97 % 1012 hPa 0,0 l/m 24,4 km/h W-SW67.5 255 5 min 16,2 C
26.07.2017 16:17 22,7 C 15,4 C 16,2 C 59 % 98 % 95 % 97 % 1012 hPa 0,0 l/m 17,6 km/h W67.5 260 5 min 16,2 C
26.07.2017 16:12 22,6 C 15,2 C 16,2 C 59 % 64 % 94 % 98 % 1012 hPa 0,0 l/m 18,5 km/h W45 275 0 min 16,2 C
26.07.2017 16:07 22,7 C 15,2 C 16,1 C 59 % 58 % 94 % 98 % 1012 hPa 0,0 l/m 18,5 km/h W45 275 0 min 16,1 C
26.07.2017 16:02 22,7 C 15,3 C 16,1 C 59 % 54 % 95 % 98 % 1012 hPa 0,0 l/m 23,0 km/h W45 280 0 min 16,1 C
26.07.2017 15:57 22,7 C 15,2 C 16,1 C 59 % 49 % 94 % 98 % 1012 hPa 0,0 l/m 15,5 km/h W67.5 270 0 min 16,1 C
26.07.2017 15:52 22,7 C 15,1 C 16,0 C 59 % 43 % 94 % 98 % 1012 hPa 0,0 l/m 20,4 km/h W45 270 0 min 16,0 C
26.07.2017 15:47 22,7 C 15,3 C 16,0 C 59 % 37 % 95 % 98 % 1012 hPa 0,0 l/m 20,2 km/h W45 280 0 min 16,0 C
26.07.2017 15:42 22,7 C 15,3 C 16,0 C 59 % 27 % 95 % 98 % 1012 hPa 0,0 l/m 14,6 km/h W67.5 260 0 min 16,0 C
26.07.2017 15:37 22,7 C 15,3 C 16,0 C 59 % 32 % 95 % 98 % 1012 hPa 0,0 l/m 13,2 km/h W45 265 0 min 16,0 C
26.07.2017 15:32 22,7 C 15,3 C 16,0 C 59 % 32 % 95 % 98 % 1012 hPa 0,0 l/m 17,1 km/h W22.5 265 0 min 16,0 C
26.07.2017 15:27 22,7 C 15,3 C 15,8 C 59 % 37 % 95 % 98 % 1012 hPa 0,0 l/m 21,1 km/h W22.5 275 0 min 15,8 C
26.07.2017 15:22 22,6 C 15,1 C 15,8 C 59 % 52 % 95 % 98 % 1012 hPa 0,0 l/m 19,8 km/h W67.5 260 0 min 15,8 C
26.07.2017 15:17 22,6 C 15,0 C 15,8 C 59 % 60 % 95 % 98 % 1012 hPa 0,0 l/m 16,3 km/h W-SW67.5 255 0 min 15,8 C
26.07.2017 15:11 22,6 C 15,0 C 15,7 C 59 % 60 % 95 % 99 % 1012 hPa 0,0 l/m 21,5 km/h W45 270 0 min 15,7 C
26.07.2017 15:07 22,6 C 15,0 C 15,7 C 59 % 43 % 95 % 99 % 1012 hPa 0,0 l/m 22,3 km/h W-SW45 250 0 min 15,7 C
26.07.2017 15:02 22,6 C 15,0 C 15,7 C 59 % 34 % 95 % 99 % 1012 hPa 0,0 l/m 16,6 km/h W-SW67.5 250 0 min 15,7 C
26.07.2017 14:57 22,7 C 15,1 C 15,7 C 59 % 29 % 95 % 99 % 1012 hPa 0,0 l/m 16,0 km/h W-SW67.5 245 0 min 15,7 C
26.07.2017 14:52 22,7 C 15,1 C 15,6 C 59 % 34 % 95 % 99 % 1011 hPa 0,0 l/m 12,3 km/h W22.5 275 0 min 15,6 C
26.07.2017 14:47 22,7 C 15,0 C 15,6 C 59 % 39 % 95 % 99 % 1011 hPa 0,0 l/m 16,9 km/h W67.5 275 0 min 15,6 C
26.07.2017 14:42 22,7 C 15,0 C 15,5 C 59 % 43 % 95 % 99 % 1011 hPa 0,0 l/m 13,2 km/h W45 280 0 min 15,5 C
26.07.2017 14:37 22,6 C 15,1 C 15,5 C 59 % 37 % 95 % 99 % 1011 hPa 0,0 l/m 16,6 km/h W45 270 0 min 15,5 C
26.07.2017 14:32 22,7 C 15,0 C 15,5 C 59 % 47 % 95 % 99 % 1011 hPa 0,0 l/m 18,1 km/h W45 270 0 min 15,5 C
26.07.2017 14:27 22,7 C 15,0 C 15,4 C 59 % 54 % 95 % 99 % 1011 hPa 0,0 l/m 15,3 km/h W67.5 265 0 min 15,4 C
26.07.2017 14:22 22,6 C 15,0 C 15,4 C 59 % 56 % 95 % 99 % 1011 hPa 0,0 l/m 15,7 km/h W45 265 0 min 15,4 C
26.07.2017 14:17 22,7 C 15,1 C 15,4 C 59 % 54 % 95 % 99 % 1011 hPa 0,0 l/m 17,9 km/h W-NW22.5 285 0 min 15,4 C
26.07.2017 14:11 22,6 C 14,9 C 15,3 C 59 % 53 % 95 % 99 % 1011 hPa 0,0 l/m 17,9 km/h W45 270 0 min 15,3 C
26.07.2017 14:07 22,6 C 14,7 C 15,2 C 59 % 52 % 95 % 99 % 1011 hPa 0,0 l/m 13,5 km/h W45 275 0 min 15,2 C
26.07.2017 14:02 22,6 C 14,7 C 15,1 C 59 % 54 % 95 % 99 % 1011 hPa 0,0 l/m 17,4 km/h W22.5 270 0 min 15,1 C
26.07.2017 13:57 22,6 C 14,7 C 15,1 C 59 % 52 % 95 % 99 % 1011 hPa 0,0 l/m 11,1 km/h W-NW45 295 0 min 15,1 C
26.07.2017 13:52 22,6 C 14,7 C 15,1 C 59 % 37 % 95 % 99 % 1011 hPa 0,0 l/m 8,7 km/h NW45 320 0 min 15,1 C
26.07.2017 13:47 22,6 C 14,7 C 15,1 C 59 % 22 % 95 % 99 % 1011 hPa 0,0 l/m 14,9 km/h W-NW22.5 285 0 min 15,1 C
26.07.2017 13:42 22,6 C 14,7 C 15,1 C 59 % 18 % 95 % 99 % 1011 hPa 0,0 l/m 14,4 km/h W67.5 280 0 min 15,1 C
26.07.2017 13:37 22,6 C 14,8 C 15,1 C 59 % 15 % 95 % 99 % 1011 hPa 0,0 l/m 15,0 km/h W22.5 270 0 min 15,1 C
26.07.2017 13:32 22,6 C 14,7 C 15,0 C 59 % 22 % 95 % 99 % 1011 hPa 0,0 l/m 13,4 km/h W45 265 0 min 15,0 C
26.07.2017 13:27 22,6 C 14,7 C 15,0 C 59 % 28 % 95 % 99 % 1011 hPa 0,0 l/m 19,8 km/h W45 270 0 min 15,0 C
26.07.2017 13:22 22,6 C 14,7 C 14,9 C 59 % 36 % 95 % 99 % 1011 hPa 0,0 l/m 13,0 km/h W22.5 275 0 min 14,9 C
26.07.2017 13:17 22,6 C 14,7 C 14,8 C 59 % 45 % 95 % 99 % 1011 hPa 0,0 l/m 15,6 km/h W-NW45 290 0 min 14,8 C
26.07.2017 13:12 22,6 C 14,7 C 14,8 C 59 % 35 % 95 % 99 % 1011 hPa 0,0 l/m 16,6 km/h W67.5 275 0 min 14,8 C
26.07.2017 13:07 22,6 C 14,7 C 14,7 C 59 % 32 % 95 % 99 % 1011 hPa 0,0 l/m 12,5 km/h W45 275 0 min 14,7 C
26.07.2017 13:02 22,6 C 14,7 C 14,7 C 59 % 28 % 95 % 99 % 1011 hPa 0,0 l/m 12,1 km/h W-SW45 255 0 min 14,7 C
26.07.2017 12:57 22,6 C 14,7 C 14,6 C 59 % 33 % 95 % 99 % 1011 hPa 0,0 l/m 16,5 km/h W22.5 270 0 min 14,6 C
26.07.2017 12:52 22,6 C 14,6 C 14,5 C 59 % 35 % 95 % 99 % 1011 hPa 0,0 l/m 12,2 km/h W22.5 270 0 min 14,5 C
26.07.2017 12:47 22,6 C 14,6 C 14,5 C 59 % 32 % 95 % 99 % 1011 hPa 0,0 l/m 12,2 km/h W22.5 270 0 min 14,5 C
26.07.2017 12:42 22,6 C 14,5 C 14,4 C 59 % 20 % 95 % 99 % 1011 hPa 0,0 l/m 10,3 km/h W45 275 0 min 14,4 C
26.07.2017 12:37 22,6 C 14,5 C 14,4 C 59 % 24 % 95 % 99 % 1011 hPa 0,0 l/m 14,7 km/h W45 280 0 min 14,4 C
26.07.2017 12:32 22,6 C 14,4 C 14,4 C 59 % 29 % 95 % 99 % 1011 hPa 0,0 l/m 16,1 km/h W22.5 275 0 min 14,4 C
26.07.2017 12:27 22,6 C 14,5 C 14,3 C 59 % 34 % 95 % 99 % 1010 hPa 0,0 l/m 13,9 km/h W45 270 0 min 14,3 C
26.07.2017 12:22 22,6 C 14,5 C 14,2 C 59 % 36 % 95 % 99 % 1011 hPa 0,0 l/m 11,7 km/h W45 260 0 min 14,2 C
26.07.2017 12:17 22,6 C 14,3 C 14,1 C 59 % 36 % 95 % 99 % 1010 hPa 0,0 l/m 17,4 km/h W45 280 0 min 14,1 C
26.07.2017 12:12 22,6 C 14,3 C 14,1 C 59 % 28 % 95 % 99 % 1010 hPa 0,0 l/m 16,1 km/h W45 275 0 min 14,1 C
26.07.2017 12:07 22,6 C 14,3 C 14,0 C 59 % 32 % 95 % 99 % 1010 hPa 0,0 l/m 19,4 km/h W67.5 275 0 min 14,0 C
26.07.2017 12:02 22,6 C 14,2 C 14,0 C 59 % 32 % 95 % 99 % 1010 hPa 0,0 l/m 15,7 km/h W45 275 0 min 14,0 C
26.07.2017 11:57 22,6 C 14,3 C 14,0 C 59 % 32 % 95 % 99 % 1010 hPa 0,0 l/m 18,3 km/h W45 280 0 min 14,0 C
26.07.2017 11:52 22,6 C 14,2 C 14,0 C 59 % 25 % 95 % 99 % 1010 hPa 0,0 l/m 20,7 km/h W45 260 0 min 14,0 C
26.07.2017 11:47 22,6 C 14,3 C 14,0 C 59 % 23 % 95 % 99 % 1010 hPa 0,0 l/m 20,1 km/h W67.5 260 0 min 14,0 C
26.07.2017 11:42 22,7 C 14,3 C 14,1 C 59 % 19 % 95 % 99 % 1010 hPa 0,1 l/m 13,8 km/h W45 275 0 min 14,1 C
26.07.2017 11:37 22,7 C 14,3 C 14,1 C 59 % 19 % 95 % 99 % 1010 hPa 0,0 l/m 23,4 km/h W67.5 280 0 min 14,1 C
26.07.2017 11:32 22,7 C 14,3 C 14,1 C 59 % 21 % 95 % 99 % 1010 hPa 0,0 l/m 19,4 km/h W45 280 0 min 14,1 C
26.07.2017 11:27 22,7 C 14,2 C 14,1 C 59 % 19 % 95 % 99 % 1010 hPa 0,0 l/m 11,6 km/h W22.5 280 0 min 14,1 C
26.07.2017 11:22 22,7 C 14,2 C 14,1 C 59 % 18 % 95 % 99 % 1010 hPa 0,0 l/m 16,3 km/h W45 275 0 min 14,1 C
26.07.2017 11:17 22,7 C 14,3 C 14,1 C 59 % 23 % 95 % 99 % 1010 hPa 0,2 l/m 15,7 km/h W45 275 0 min 14,1 C
26.07.2017 11:12 22,7 C 14,4 C 14,2 C 59 % 27 % 95 % 98 % 1010 hPa 0,0 l/m 21,2 km/h W67.5 275 0 min 14,2 C
26.07.2017 11:07 22,6 C 14,3 C 14,1 C 59 % 28 % 95 % 99 % 1010 hPa 0,1 l/m 17,4 km/h W67.5 265 0 min 14,1 C
26.07.2017 11:02 22,7 C 14,3 C 14,2 C 58 % 30 % 95 % 98 % 1010 hPa 0,1 l/m 15,0 km/h W67.5 260 0 min 14,2 C
26.07.2017 10:57 22,7 C 14,3 C 14,2 C 58 % 35 % 95 % 98 % 1010 hPa 0,0 l/m 19,2 km/h W-SW67.5 255 0 min 14,2 C
26.07.2017 10:52 22,8 C 14,3 C 14,2 C 58 % 32 % 95 % 98 % 1010 hPa 0,1 l/m 11,6 km/h W45 265 0 min 14,2 C
26.07.2017 10:47 22,7 C 14,3 C 14,2 C 58 % 20 % 95 % 98 % 1010 hPa 0,1 l/m 18,1 km/h W-NW45 285 0 min 14,2 C
26.07.2017 10:42 22,7 C 14,3 C 14,2 C 58 % 20 % 95 % 98 % 1010 hPa 0,0 l/m 15,2 km/h W67.5 265 0 min 14,2 C
26.07.2017 10:37 22,7 C 14,5 C 14,2 C 58 % 19 % 95 % 98 % 1010 hPa 0,0 l/m 20,6 km/h W45 275 0 min 14,2 C
26.07.2017 10:32 22,7 C 14,5 C 14,2 C 58 % 26 % 95 % 98 % 1010 hPa 0,0 l/m 13,8 km/h W45 270 0 min 14,2 C
26.07.2017 10:27 22,7 C 14,4 C 14,2 C 58 % 26 % 95 % 98 % 1010 hPa 0,0 l/m 18,1 km/h W45 280 0 min 14,2 C
26.07.2017 10:22 22,7 C 14,5 C 14,3 C 58 % 32 % 95 % 99 % 1010 hPa 0,1 l/m 16,9 km/h W67.5 270 0 min 14,3 C
26.07.2017 10:17 22,8 C 14,4 C 14,3 C 58 % 38 % 95 % 99 % 1010 hPa 0,2 l/m 20,1 km/h W67.5 270 0 min 14,3 C
26.07.2017 10:12 22,7 C 14,5 C 14,3 C 58 % 31 % 95 % 99 % 1010 hPa 0,4 l/m 16,3 km/h W67.5 275 0 min 14,3 C
26.07.2017 10:07 22,7 C 14,5 C 14,3 C 58 % 26 % 95 % 99 % 1010 hPa 0,1 l/m 17,3 km/h W45 280 0 min 14,3 C
26.07.2017 10:02 22,8 C 14,4 C 14,3 C 58 % 28 % 95 % 99 % 1010 hPa 0,0 l/m 17,6 km/h W22.5 280 0 min 14,3 C
26.07.2017 09:57 22,8 C 14,4 C 14,3 C 58 % 26 % 95 % 99 % 1010 hPa 0,0 l/m 20,4 km/h W67.5 275 0 min 14,3 C
26.07.2017 09:52 22,8 C 14,5 C 14,3 C 58 % 30 % 95 % 99 % 1010 hPa 0,4 l/m 14,7 km/h W45 280 0 min 14,3 C
26.07.2017 09:47 22,8 C 14,5 C 14,3 C 58 % 27 % 95 % 99 % 1010 hPa 0,0 l/m 17,9 km/h W67.5 275 0 min 14,3 C
26.07.2017 09:42 22,7 C 14,5 C 14,2 C 58 % 44 % 95 % 98 % 1010 hPa 0,0 l/m 16,8 km/h W67.5 270 0 min 14,2 C
26.07.2017 09:37 22,7 C 14,3 C 14,0 C 58 % 44 % 95 % 98 % 1010 hPa 0,0 l/m 18,6 km/h W67.5 260 0 min 14,0 C
26.07.2017 09:32 22,7 C 14,3 C 14,0 C 58 % 50 % 95 % 98 % 1010 hPa 0,0 l/m 18,8 km/h W45 275 0 min 14,0 C
26.07.2017 09:27 22,7 C 14,1 C 14,0 C 58 % 49 % 95 % 98 % 1010 hPa 0,0 l/m 17,6 km/h W45 270 0 min 14,0 C
26.07.2017 09:22 22,7 C 14,0 C 13,9 C 58 % 46 % 95 % 98 % 1010 hPa 0,0 l/m 16,4 km/h W67.5 275 0 min 13,9 C
26.07.2017 09:17 22,7 C 14,0 C 13,9 C 58 % 44 % 95 % 98 % 1010 hPa 0,0 l/m 16,0 km/h W45 275 0 min 13,9 C
26.07.2017 09:12 22,8 C 14,1 C 13,8 C 58 % 31 % 95 % 98 % 1010 hPa 0,0 l/m 19,4 km/h W67.5 270 0 min 13,8 C
26.07.2017 09:07 22,8 C 14,1 C 13,8 C 58 % 25 % 95 % 98 % 1010 hPa 0,0 l/m 21,6 km/h W45 275 0 min 13,8 C
26.07.2017 09:02 22,8 C 14,1 C 13,8 C 58 % 18 % 95 % 98 % 1010 hPa 0,0 l/m 21,9 km/h W45 280 0 min 13,8 C
26.07.2017 08:57 22,8 C 14,1 C 13,9 C 58 % 18 % 95 % 98 % 1009 hPa 0,1 l/m 16,5 km/h W22.5 280 0 min 13,9 C
26.07.2017 08:52 22,8 C 14,1 C 13,9 C 58 % 21 % 95 % 98 % 1009 hPa 0,0 l/m 15,0 km/h W45 270 0 min 13,9 C
26.07.2017 08:47 22,8 C 14,1 C 13,9 C 58 % 19 % 95 % 98 % 1009 hPa 0,4 l/m 24,6 km/h W45 275 0 min 13,9 C
26.07.2017 08:42 22,8 C 14,1 C 13,9 C 58 % 19 % 95 % 98 % 1009 hPa 0,5 l/m 14,9 km/h W45 270 0 min 13,9 C
26.07.2017 08:37 22,8 C 14,1 C 13,9 C 58 % 13 % 95 % 98 % 1009 hPa 0,2 l/m 21,6 km/h W45 270 0 min 13,9 C
26.07.2017 08:32 22,8 C 14,1 C 13,8 C 58 % 12 % 95 % 98 % 1009 hPa 0,0 l/m 14,6 km/h W-NW45 285 0 min 13,8 C
26.07.2017 08:27 22,8 C 14,1 C 13,8 C 58 % 14 % 95 % 98 % 1009 hPa 0,0 l/m 14,1 km/h W45 275 0 min 13,8 C
26.07.2017 08:22 22,8 C 14,1 C 13,8 C 58 % 19 % 95 % 98 % 1009 hPa 0,0 l/m 23,8 km/h W22.5 275 0 min 13,8 C
26.07.2017 08:16 22,8 C 14,0 C 13,8 C 58 % 20 % 95 % 98 % 1009 hPa 0,1 l/m 16,0 km/h W45 275 0 min 13,8 C
26.07.2017 08:12 22,8 C 14,0 C 13,8 C 58 % 21 % 95 % 98 % 1009 hPa 0,0 l/m 13,0 km/h W45 270 0 min 13,8 C
26.07.2017 08:07 22,8 C 14,1 C 13,8 C 58 % 19 % 95 % 98 % 1009 hPa 0,0 l/m 18,7 km/h W45 270 0 min 13,8 C
26.07.2017 08:02 22,8 C 14,1 C 13,8 C 59 % 17 % 95 % 98 % 1009 hPa 0,0 l/m 16,3 km/h W45 275 0 min 13,8 C
26.07.2017 07:57 22,8 C 14,1 C 13,8 C 58 % 17 % 95 % 98 % 1009 hPa 0,0 l/m 16,4 km/h W67.5 275 0 min 13,8 C
26.07.2017 07:52 22,8 C 14,0 C 13,9 C 58 % 16 % 95 % 98 % 1009 hPa 0,0 l/m 14,6 km/h W22.5 270 0 min 13,9 C
26.07.2017 07:47 22,8 C 14,1 C 13,9 C 58 % 14 % 95 % 98 % 1009 hPa 0,0 l/m 15,2 km/h W-NW67.5 290 0 min 13,9 C
26.07.2017 07:42 22,8 C 14,1 C 13,8 C 59 % 8 % 95 % 98 % 1009 hPa 0,0 l/m 21,5 km/h W45 275 0 min 13,8 C
26.07.2017 07:37 22,8 C 14,0 C 13,8 C 59 % 8 % 95 % 98 % 1009 hPa 0,0 l/m 19,9 km/h W45 270 0 min 13,8 C
26.07.2017 07:32 22,8 C 14,0 C 13,8 C 58 % 8 % 95 % 98 % 1009 hPa 0,0 l/m 13,5 km/h W-NW22.5 285 0 min 13,8 C
26.07.2017 07:27 22,8 C 14,0 C 13,8 C 58 % 7 % 95 % 98 % 1009 hPa 0,0 l/m 11,2 km/h W67.5 275 0 min 13,8 C
26.07.2017 07:22 22,8 C 14,0 C 13,8 C 59 % 4 % 95 % 98 % 1009 hPa 0,0 l/m 7,5 km/h W 280 0 min 13,8 C
26.07.2017 07:17 22,8 C 14,1 C 13,8 C 59 % 6 % 95 % 98 % 1009 hPa 0,0 l/m 9,8 km/h W-NW22.5 285 0 min 13,8 C
26.07.2017 07:12 22,8 C 14,1 C 13,8 C 59 % 3 % 95 % 98 % 1009 hPa 0,0 l/m 10,4 km/h W-NW22.5 295 0 min 13,8 C
26.07.2017 07:07 22,8 C 14,1 C 13,8 C 58 % 3 % 95 % 98 % 1009 hPa 0,0 l/m 8,4 km/h W-NW22.5 285 0 min 13,8 C
26.07.2017 07:02 22,8 C 14,1 C 13,8 C 58 % 3 % 95 % 98 % 1009 hPa 0,0 l/m 10,4 km/h W 280 0 min 13,8 C
26.07.2017 06:57 22,8 C 13,9 C 13,8 C 59 % 4 % 94 % 98 % 1009 hPa 0,0 l/m 11,0 km/h W22.5 280 0 min 13,8 C
26.07.2017 06:52 22,9 C 14,0 C 13,8 C 59 % 5 % 95 % 98 % 1009 hPa 0,0 l/m 12,8 km/h W22.5 275 0 min 13,8 C
26.07.2017 06:47 22,9 C 14,1 C 13,8 C 59 % 4 % 95 % 98 % 1009 hPa 0,0 l/m 17,2 km/h W-NW67.5 285 0 min 13,8 C
26.07.2017 06:42 22,9 C 14,1 C 13,8 C 59 % 3 % 95 % 98 % 1009 hPa 0,0 l/m 15,7 km/h W-NW67.5 285 0 min 13,8 C
26.07.2017 06:37 22,9 C 14,1 C 13,8 C 59 % 4 % 95 % 98 % 1009 hPa 0,0 l/m 12,5 km/h W45 275 0 min 13,8 C
26.07.2017 06:32 22,9 C 13,9 C 13,8 C 59 % 4 % 94 % 98 % 1009 hPa 0,0 l/m 15,4 km/h W22.5 275 0 min 13,8 C
26.07.2017 06:27 22,9 C 13,9 C 13,8 C 59 % 5 % 94 % 98 % 1009 hPa 0,0 l/m 15,1 km/h W45 265 0 min 13,8 C
26.07.2017 06:22 22,9 C 14,0 C 13,8 C 59 % 5 % 95 % 98 % 1008 hPa 0,0 l/m 16,8 km/h W-NW45 285 0 min 13,8 C
26.07.2017 06:17 22,9 C 13,9 C 13,8 C 59 % 3 % 94 % 98 % 1008 hPa 0,0 l/m 17,2 km/h W-NW45 285 0 min 13,8 C
26.07.2017 06:12 23,0 C 13,9 C 13,8 C 59 % 2 % 94 % 98 % 1008 hPa 0,0 l/m 20,7 km/h W22.5 280 0 min 13,8 C
26.07.2017 06:07 23,0 C 14,1 C 13,8 C 59 % 1 % 95 % 98 % 1008 hPa 0,0 l/m 14,0 km/h W45 275 0 min 13,8 C
26.07.2017 06:02 23,0 C 14,1 C 13,8 C 59 % 1 % 95 % 98 % 1008 hPa 0,0 l/m 12,2 km/h W45 275 0 min 13,8 C
26.07.2017 05:57 23,0 C 14,1 C 13,8 C 59 % 0 % 95 % 98 % 1008 hPa 0,0 l/m 12,1 km/h W22.5 275 0 min 13,8 C
26.07.2017 05:51 23,0 C 14,1 C 13,8 C 59 % 0 % 95 % 98 % 1008 hPa 0,0 l/m 12,7 km/h W22.5 260 0 min 13,8 C
26.07.2017 05:47 23,0 C 14,1 C 13,8 C 59 % 0 % 95 % 98 % 1008 hPa 0,1 l/m 11,6 km/h W45 270 0 min 13,8 C
26.07.2017 05:42 23,0 C 14,1 C 13,8 C 59 % 0 % 95 % 98 % 1008 hPa 0,0 l/m 15,2 km/h W45 275 0 min 13,8 C
26.07.2017 05:37 23,0 C 14,1 C 13,8 C 59 % 0 % 95 % 98 % 1008 hPa 0,0 l/m 13,3 km/h W45 275 0 min 13,8 C
26.07.2017 05:32 23,0 C 14,1 C 13,8 C 59 % 0 % 95 % 98 % 1008 hPa 0,0 l/m 15,2 km/h W67.5 275 0 min 13,8 C
26.07.2017 05:27 23,0 C 14,1 C 13,8 C 59 % 0 % 95 % 98 % 1008 hPa 0,1 l/m 15,2 km/h W67.5 275 0 min 13,8 C
26.07.2017 05:22 23,0 C 14,1 C 13,8 C 59 % 0 % 95 % 98 % 1008 hPa 0,0 l/m 13,5 km/h W22.5 275 0 min 13,8 C
26.07.2017 05:17 23,0 C 14,1 C 13,8 C 59 % 0 % 95 % 98 % 1008 hPa 0,1 l/m 10,3 km/h W45 275 0 min 13,8 C
26.07.2017 05:12 23,0 C 14,1 C 13,8 C 59 % 0 % 95 % 98 % 1008 hPa 0,1 l/m 14,2 km/h W45 280 0 min 13,8 C
26.07.2017 05:07 23,0 C 14,1 C 13,8 C 59 % 0 % 95 % 98 % 1008 hPa 0,1 l/m 15,6 km/h W45 280 0 min 13,8 C
26.07.2017 05:02 23,0 C 14,1 C 13,8 C 59 % 0 % 95 % 98 % 1008 hPa 0,0 l/m 13,5 km/h W45 280 0 min 13,8 C
26.07.2017 04:57 23,0 C 14,1 C 13,8 C 59 % 0 % 95 % 98 % 1008 hPa 0,1 l/m 15,0 km/h W-NW67.5 285 0 min 13,8 C
26.07.2017 04:52 23,0 C 14,1 C 13,8 C 59 % 0 % 95 % 98 % 1008 hPa 0,0 l/m 26,6 km/h W67.5 275 0 min 13,8 C
26.07.2017 04:47 23,0 C 14,1 C 13,8 C 59 % 0 % 95 % 98 % 1008 hPa 0,1 l/m 27,6 km/h W22.5 275 0 min 13,8 C
26.07.2017 04:42 23,0 C 14,1 C 13,8 C 59 % 0 % 95 % 98 % 1008 hPa 0,1 l/m 25,1 km/h W45 280 0 min 13,8 C
26.07.2017 04:37 23,0 C 14,1 C 13,8 C 59 % 0 % 95 % 98 % 1008 hPa 0,1 l/m 15,8 km/h W45 280 0 min 13,8 C
26.07.2017 04:32 23,0 C 14,1 C 13,8 C 59 % 0 % 95 % 98 % 1007 hPa 0,0 l/m 13,6 km/h W67.5 270 0 min 13,8 C
26.07.2017 04:27 23,0 C 14,1 C 13,8 C 59 % 0 % 95 % 98 % 1007 hPa 0,1 l/m 16,3 km/h W-NW22.5 285 0 min 13,8 C
26.07.2017 04:22 23,0 C 14,1 C 13,8 C 59 % 0 % 95 % 98 % 1007 hPa 0,0 l/m 19,7 km/h W67.5 280 0 min 13,8 C
26.07.2017 04:17 23,0 C 14,1 C 13,7 C 59 % 0 % 95 % 98 % 1007 hPa 0,2 l/m 14,5 km/h W45 280 0 min 13,7 C
26.07.2017 04:12 23,0 C 14,1 C 13,8 C 59 % 0 % 95 % 98 % 1007 hPa 0,0 l/m 14,2 km/h W45 270 0 min 13,8 C
26.07.2017 04:07 23,0 C 14,1 C 13,7 C 59 % 0 % 95 % 98 % 1007 hPa 0,5 l/m 18,7 km/h W22.5 275 0 min 13,7 C
26.07.2017 04:02 23,0 C 14,1 C 13,7 C 59 % 0 % 95 % 98 % 1007 hPa 0,4 l/m 15,7 km/h W22.5 280 0 min 13,7 C
26.07.2017 03:57 23,0 C 14,1 C 13,7 C 59 % 0 % 95 % 98 % 1007 hPa 0,4 l/m 21,2 km/h W67.5 270 0 min 13,7 C
26.07.2017 03:52 23,0 C 14,1 C 13,7 C 59 % 0 % 95 % 98 % 1007 hPa 0,3 l/m 14,4 km/h W-NW45 285 0 min 13,7 C
26.07.2017 03:47 23,0 C 14,1 C 13,8 C 59 % 0 % 95 % 98 % 1007 hPa 0,1 l/m 19,7 km/h W-NW22.5 285 0 min 13,8 C
26.07.2017 03:42 23,0 C 14,1 C 13,7 C 59 % 0 % 95 % 98 % 1007 hPa 0,2 l/m 14,6 km/h W-NW45 285 0 min 13,7 C
26.07.2017 03:37 23,0 C 14,1 C 13,6 C 59 % 0 % 95 % 98 % 1007 hPa 0,3 l/m 17,1 km/h W45 280 0 min 13,6 C
26.07.2017 03:32 23,0 C 14,1 C 13,6 C 59 % 0 % 95 % 98 % 1007 hPa 0,2 l/m 19,4 km/h W-NW45 285 0 min 13,6 C
26.07.2017 03:27 23,0 C 14,1 C 13,6 C 59 % 0 % 95 % 98 % 1007 hPa 0,1 l/m 25,9 km/h W-NW67.5 285 0 min 13,6 C
26.07.2017 03:22 23,0 C 14,1 C 13,6 C 59 % 0 % 95 % 98 % 1007 hPa 0,0 l/m 17,2 km/h W45 275 0 min 13,6 C
26.07.2017 03:17 23,0 C 14,1 C 13,6 C 59 % 0 % 95 % 98 % 1007 hPa 0,1 l/m 17,4 km/h W45 275 0 min 13,6 C
26.07.2017 03:12 23,0 C 14,1 C 13,6 C 59 % 0 % 95 % 98 % 1007 hPa 0,2 l/m 23,2 km/h W45 265 0 min 13,6 C
26.07.2017 03:07 23,1 C 14,1 C 13,6 C 59 % 0 % 95 % 98 % 1007 hPa 0,0 l/m 16,8 km/h W67.5 280 0 min 13,6 C
26.07.2017 03:02 23,1 C 14,1 C 13,6 C 59 % 0 % 95 % 98 % 1007 hPa 0,0 l/m 27,9 km/h W67.5 265 0 min 13,6 C
26.07.2017 02:57 23,1 C 14,1 C 13,6 C 59 % 0 % 95 % 98 % 1007 hPa 0,0 l/m 27,9 km/h W67.5 265 0 min 13,6 C
26.07.2017 02:52 23,1 C 14,1 C 13,6 C 59 % 0 % 95 % 98 % 1007 hPa 0,0 l/m 25,2 km/h W67.5 270 0 min 13,6 C
26.07.2017 02:47 23,1 C 14,1 C 13,6 C 58 % 0 % 95 % 98 % 1007 hPa 0,2 l/m 21,7 km/h W45 260 0 min 13,6 C
26.07.2017 02:42 23,1 C 14,1 C 13,6 C 58 % 0 % 95 % 98 % 1007 hPa 0,4 l/m 22,3 km/h W-NW45 285 0 min 13,6 C
26.07.2017 02:37 23,1 C 14,1 C 13,6 C 58 % 0 % 95 % 98 % 1007 hPa 0,3 l/m 20,6 km/h W67.5 260 0 min 13,6 C
26.07.2017 02:32 23,1 C 14,1 C 13,6 C 58 % 0 % 95 % 98 % 1007 hPa 0,3 l/m 19,8 km/h W67.5 270 0 min 13,6 C
26.07.2017 02:27 23,1 C 14,1 C 13,6 C 58 % 0 % 95 % 98 % 1007 hPa 0,4 l/m 16,7 km/h W67.5 265 0 min 13,6 C
26.07.2017 02:22 23,1 C 14,1 C 13,6 C 58 % 0 % 95 % 98 % 1007 hPa 0,1 l/m 18,8 km/h W45 265 0 min 13,6 C
26.07.2017 02:17 23,1 C 14,1 C 13,6 C 58 % 0 % 95 % 98 % 1007 hPa 0,2 l/m 26,3 km/h W67.5 265 0 min 13,6 C
26.07.2017 02:12 23,1 C 14,1 C 13,6 C 58 % 0 % 95 % 98 % 1007 hPa 0,3 l/m 21,6 km/h W67.5 260 0 min 13,6 C
26.07.2017 02:07 23,1 C 14,1 C 13,6 C 58 % 0 % 95 % 98 % 1007 hPa 1,0 l/m 20,4 km/h W45 275 0 min 13,6 C
26.07.2017 02:02 23,1 C 14,1 C 13,6 C 58 % 0 % 95 % 98 % 1007 hPa 0,0 l/m 16,3 km/h W45 270 0 min 13,6 C
26.07.2017 01:57 23,1 C 14,1 C 13,6 C 58 % 0 % 95 % 98 % 1007 hPa 0,3 l/m 22,6 km/h W67.5 265 0 min 13,6 C
26.07.2017 01:52 23,1 C 14,1 C 13,6 C 58 % 0 % 95 % 98 % 1007 hPa 0,4 l/m 23,1 km/h W67.5 280 0 min 13,6 C
26.07.2017 01:47 23,1 C 14,1 C 13,6 C 58 % 0 % 95 % 98 % 1007 hPa 0,1 l/m 24,2 km/h W-SW67.5 255 0 min 13,6 C
26.07.2017 01:42 23,1 C 14,1 C 13,6 C 58 % 0 % 95 % 98 % 1007 hPa 0,3 l/m 26,2 km/h W45 270 0 min 13,6 C
26.07.2017 01:37 23,1 C 14,1 C 13,6 C 58 % 0 % 95 % 98 % 1007 hPa 0,4 l/m 16,6 km/h W22.5 275 0 min 13,6 C
26.07.2017 01:32 23,1 C 14,1 C 13,6 C 58 % 0 % 95 % 98 % 1007 hPa 0,4 l/m 25,6 km/h W45 275 0 min 13,6 C
26.07.2017 01:27 23,1 C 14,1 C 13,6 C 58 % 0 % 95 % 98 % 1007 hPa 0,2 l/m 23,8 km/h W45 275 0 min 13,6 C
26.07.2017 01:22 23,1 C 14,1 C 13,6 C 58 % 0 % 95 % 98 % 1007 hPa 0,4 l/m 31,9 km/h W67.5 270 0 min 13,6 C
26.07.2017 01:17 23,1 C 14,1 C 13,6 C 58 % 0 % 95 % 98 % 1007 hPa 0,1 l/m 22,9 km/h W45 265 0 min 13,6 C
26.07.2017 01:12 23,1 C 14,1 C 13,6 C 58 % 0 % 95 % 98 % 1007 hPa 0,3 l/m 32,5 km/h W67.5 275 0 min 13,6 C
26.07.2017 01:07 23,1 C 14,1 C 13,6 C 58 % 0 % 95 % 98 % 1007 hPa 0,1 l/m 18,9 km/h W-SW67.5 250 0 min 13,6 C
26.07.2017 01:02 23,1 C 14,1 C 13,6 C 58 % 0 % 95 % 98 % 1007 hPa 0,2 l/m 26,8 km/h W-SW67.5 255 0 min 13,6 C
26.07.2017 00:57 23,1 C 14,1 C 13,6 C 58 % 0 % 95 % 98 % 1007 hPa 0,0 l/m 22,0 km/h W67.5 260 0 min 13,6 C
26.07.2017 00:52 23,2 C 14,0 C 13,6 C 58 % 0 % 95 % 98 % 1007 hPa 0,2 l/m 27,9 km/h W-SW67.5 245 0 min 13,6 C
26.07.2017 00:47 23,2 C 14,0 C 13,6 C 58 % 0 % 95 % 98 % 1007 hPa 0,1 l/m 21,1 km/h W67.5 260 0 min 13,6 C
26.07.2017 00:42 23,2 C 14,7 C 13,8 C 58 % 0 % 93 % 98 % 1007 hPa 0,3 l/m 13,1 km/h W-SW67.5 250 0 min 13,8 C
26.07.2017 00:37 23,2 C 14,7 C 13,7 C 58 % 0 % 93 % 98 % 1007 hPa 0,4 l/m 14,3 km/h W45 280 0 min 13,7 C
26.07.2017 00:32 23,2 C 14,7 C 13,7 C 58 % 0 % 93 % 98 % 1007 hPa 0,2 l/m 21,3 km/h W45 265 0 min 13,7 C
26.07.2017 00:27 23,2 C 14,7 C 13,7 C 58 % 0 % 93 % 98 % 1007 hPa 0,2 l/m 20,7 km/h W-SW67.5 255 0 min 13,7 C
26.07.2017 00:22 23,2 C 14,7 C 13,8 C 58 % 0 % 93 % 98 % 1007 hPa 1,0 l/m 19,5 km/h W-SW67.5 250 0 min 13,8 C
26.07.2017 00:17 23,2 C 14,7 C 13,7 C 58 % 0 % 93 % 98 % 1007 hPa 0,1 l/m 16,1 km/h W67.5 265 0 min 13,7 C
26.07.2017 00:12 23,2 C 14,7 C 13,7 C 58 % 0 % 93 % 98 % 1008 hPa 0,1 l/m 13,8 km/h W67.5 270 0 min 13,7 C
26.07.2017 00:07 23,2 C 14,7 C 13,8 C 58 % 0 % 93 % 98 % 1008 hPa 0,2 l/m 17,3 km/h W-SW67.5 250 0 min 13,8 C
26.07.2017 00:02 23,2 C 14,7 C 13,8 C 58 % 0 % 93 % 98 % 1008 hPa 0,2 l/m 16,4 km/h W45 275 0 min 13,8 C
_ Min-Zeit 11:07 06:12 00:47 00:02 - 17:47 17:47 00:17 - 20:27 - - - 00:47
Minimum _ 22,6 C 13,9 C 13,6 C 58 % - 92 % 93 % 1007 hPa - 0,0 km/h - - - 13,6 C
_ Max-Zeit 00:02 19:22 19:22 18:22 16:17 00:47 09:47 14:57 00:22 01:12 - - 16:17 19:22
Maximum _ 23,2 C 17,3 C 19,6 C 61 % 98 % 95 % 99 % 1012 hPa 1,0 l/m 32,5 km/h
W
- - 5 min 19,6 C
Durchschnitt _ 22,9 C 15,0 C 15,3 C 59 % #1:25 h 94 % 97 % 1009 hPa #15,6 l/m 15,1 km/h W - #1:25 h 15,3 C